createdAt,value
2022-12-18T00:00:42.987Z,-2.90
2022-12-18T00:05:49.696Z,-3.00
2022-12-18T00:10:52.546Z,-2.90
2022-12-18T00:15:57.070Z,-3.10
2022-12-18T00:21:01.984Z,-3.10
2022-12-18T00:26:06.852Z,-3.10
2022-12-18T00:31:13.048Z,-3.00
2022-12-18T00:36:18.229Z,-3.10
2022-12-18T00:41:35.642Z,-3.20
2022-12-18T00:46:42.316Z,-3.30
2022-12-18T00:51:45.441Z,-3.10
2022-12-18T00:56:49.657Z,-2.90
2022-12-18T01:01:54.918Z,-3.00
2022-12-18T01:06:57.806Z,-3.00
2022-12-18T01:12:00.692Z,-3.00
2022-12-18T01:17:04.933Z,-3.30
2022-12-18T01:22:09.664Z,-3.20
2022-12-18T01:27:12.527Z,-3.10
2022-12-18T01:32:17.795Z,-3.00
2022-12-18T01:37:20.671Z,-3.20
2022-12-18T01:42:24.343Z,-3.20
2022-12-18T01:47:32.308Z,-3.10
2022-12-18T01:52:36.551Z,-3.10
2022-12-18T01:57:41.157Z,-3.10
2022-12-18T02:02:47.093Z,-3.10
2022-12-18T02:08:00.044Z,-3.10
2022-12-18T02:13:14.123Z,-3.10
2022-12-18T02:18:23.023Z,-3.00
2022-12-18T02:23:41.996Z,-3.40
2022-12-18T02:28:51.144Z,-3.70
2022-12-18T02:33:56.437Z,-3.40
2022-12-18T02:39:01.742Z,-3.30
2022-12-18T02:44:11.179Z,-3.30
2022-12-18T02:49:25.502Z,-3.30
2022-12-18T02:54:44.643Z,-3.10
2022-12-18T02:59:57.989Z,-3.20
2022-12-18T03:05:07.510Z,-3.20
2022-12-18T03:10:16.233Z,-3.20
2022-12-18T03:15:26.642Z,-3.30
2022-12-18T03:20:39.063Z,-3.30
2022-12-18T03:25:46.088Z,-3.30
2022-12-18T03:30:57.154Z,-3.20
2022-12-18T03:36:00.369Z,-3.50
2022-12-18T03:41:12.767Z,-3.60
2022-12-18T03:46:45.538Z,-3.50
2022-12-18T03:51:53.710Z,-3.30
2022-12-18T03:57:00.312Z,-3.20
2022-12-18T04:02:09.033Z,-3.40
2022-12-18T04:07:14.050Z,-3.40
2022-12-18T04:12:19.583Z,-3.10
2022-12-18T04:17:25.994Z,-3.30
2022-12-18T04:22:29.682Z,-3.30
2022-12-18T04:27:36.052Z,-3.40
2022-12-18T04:32:45.511Z,-3.40
2022-12-18T04:37:51.296Z,-3.50
2022-12-18T04:42:54.789Z,-3.50
2022-12-18T04:47:59.298Z,-3.50
2022-12-18T04:53:02.240Z,-3.40
2022-12-18T04:58:05.154Z,-3.40
2022-12-18T05:03:17.580Z,-3.40
2022-12-18T05:08:21.060Z,-3.40
2022-12-18T05:13:23.960Z,-3.50
2022-12-18T05:18:28.400Z,-3.50
2022-12-18T05:23:31.605Z,-3.40
2022-12-18T05:28:36.592Z,-3.70
2022-12-18T05:33:41.367Z,-4.00
2022-12-18T05:38:44.528Z,-3.60
2022-12-18T05:43:47.427Z,-3.60
2022-12-18T05:48:52.008Z,-3.70
2022-12-18T05:53:55.043Z,-3.90
2022-12-18T05:58:57.949Z,-4.00
2022-12-18T06:04:02.225Z,-4.10
2022-12-18T06:09:09.171Z,-4.20
2022-12-18T06:14:12.210Z,-4.10
2022-12-18T06:19:18.238Z,-4.00
2022-12-18T06:24:21.183Z,-4.10
2022-12-18T06:29:24.229Z,-4.40
2022-12-18T06:34:28.715Z,-4.50
2022-12-18T06:39:31.716Z,-4.20
2022-12-18T06:44:34.799Z,-4.00
2022-12-18T06:49:39.288Z,-3.80
2022-12-18T06:54:42.233Z,-3.80
2022-12-18T06:59:45.680Z,-3.80
2022-12-18T07:04:49.993Z,-3.70
2022-12-18T07:09:53.445Z,-3.70
2022-12-18T07:14:56.340Z,-3.60
2022-12-18T07:20:00.640Z,-3.50
2022-12-18T07:25:03.585Z,-3.60
2022-12-18T07:30:07.968Z,-3.50
2022-12-18T07:35:12.312Z,-3.40
2022-12-18T07:40:15.408Z,-3.70
2022-12-18T07:45:18.405Z,-3.60
2022-12-18T07:50:22.908Z,-3.60
2022-12-18T07:55:25.852Z,-3.60
2022-12-18T08:00:28.884Z,-3.60
2022-12-18T08:05:33.192Z,-3.50
2022-12-18T08:10:36.131Z,-3.50
2022-12-18T08:15:39.008Z,-3.90
2022-12-18T08:20:43.431Z,-3.70
2022-12-18T08:25:46.473Z,-3.60
2022-12-18T08:30:53.873Z,-3.50
2022-12-18T08:35:58.192Z,-3.50
2022-12-18T08:41:02.101Z,-3.30
2022-12-18T08:46:05.161Z,-3.80
2022-12-18T08:51:10.651Z,-3.40
2022-12-18T08:56:13.842Z,-3.30
2022-12-18T09:01:16.791Z,-3.60
2022-12-18T09:06:23.634Z,-3.40
2022-12-18T09:11:29.023Z,-3.20
2022-12-18T09:16:33.148Z,-3.30
2022-12-18T09:21:42.264Z,-3.20
2022-12-18T09:26:47.898Z,-3.10
2022-12-18T09:31:51.456Z,-3.10
2022-12-18T09:36:55.780Z,-3.50
2022-12-18T09:42:00.603Z,-3.50
2022-12-18T09:47:10.454Z,-3.50
2022-12-18T09:52:19.660Z,-3.70
2022-12-18T09:57:26.560Z,-3.30
2022-12-18T10:02:33.500Z,-3.70
2022-12-18T10:07:55.318Z,-3.00
2022-12-18T10:13:05.684Z,-2.90
2022-12-18T10:18:23.587Z,-3.70
2022-12-18T10:23:32.640Z,-3.60
2022-12-18T10:28:38.251Z,-3.50
2022-12-18T10:33:42.240Z,-3.80
2022-12-18T10:38:46.597Z,-3.50
2022-12-18T10:43:50.013Z,-3.50
2022-12-18T10:48:56.346Z,-3.40
2022-12-18T10:54:04.611Z,-3.20
2022-12-18T10:59:11.555Z,-3.70
2022-12-18T11:04:20.655Z,-4.50
2022-12-18T11:09:26.930Z,-4.20
2022-12-18T11:14:31.715Z,-3.90
2022-12-18T11:19:36.466Z,-4.00
2022-12-18T11:24:41.649Z,-4.10
2022-12-18T11:29:46.765Z,-4.20
2022-12-18T11:34:58.798Z,-4.20
2022-12-18T11:40:09.281Z,-4.10
2022-12-18T11:45:28.552Z,-3.90
2022-12-18T11:50:35.892Z,-4.10
2022-12-18T11:55:48.005Z,-4.30
2022-12-18T12:01:01.766Z,-4.00
2022-12-18T12:06:15.488Z,-4.20
2022-12-18T12:11:30.344Z,-4.10
2022-12-18T12:16:43.651Z,-4.00
2022-12-18T12:21:53.220Z,-4.10
2022-12-18T12:27:10.355Z,-3.70
2022-12-18T12:32:25.635Z,-3.70
2022-12-18T12:37:41.043Z,-3.50
2022-12-18T12:43:08.123Z,-3.30
2022-12-18T12:48:20.124Z,-3.20
2022-12-18T12:53:28.394Z,-3.00
2022-12-18T12:58:40.541Z,-2.90
2022-12-18T13:03:51.921Z,-2.90
2022-12-18T13:08:58.349Z,-2.80
2022-12-18T13:14:02.774Z,-2.80
2022-12-18T13:19:05.714Z,-2.70
2022-12-18T13:24:23.814Z,-2.70
2022-12-18T13:29:47.755Z,-2.70
2022-12-18T13:35:11.271Z,-2.70
2022-12-18T13:41:00.011Z,-2.80
2022-12-18T13:46:19.925Z,-2.90
2022-12-18T13:51:24.101Z,-2.70
2022-12-18T13:56:30.366Z,-3.10
2022-12-18T14:01:34.810Z,-3.10
2022-12-18T14:06:46.465Z,-3.00
2022-12-18T14:11:51.178Z,-3.10
2022-12-18T14:16:55.998Z,-3.20
2022-12-18T14:21:58.982Z,-3.00
2022-12-18T14:27:21.448Z,-3.00
2022-12-18T14:32:25.798Z,-3.00
2022-12-18T14:37:29.484Z,-2.90
2022-12-18T14:42:32.747Z,-3.00
2022-12-18T14:47:37.079Z,-2.80
2022-12-18T14:52:40.122Z,-2.90
2022-12-18T14:57:44.399Z,-2.90
2022-12-18T15:02:50.372Z,-3.00
2022-12-18T15:07:55.800Z,-2.90
2022-12-18T15:13:22.546Z,-3.00
2022-12-18T15:18:32.326Z,-3.10
2022-12-18T15:23:38.460Z,-3.10
2022-12-18T15:28:46.820Z,-3.20
2022-12-18T15:34:11.965Z,-3.30
2022-12-18T15:39:15.152Z,-3.30
2022-12-18T15:44:25.585Z,-3.20
2022-12-18T15:49:29.966Z,-3.20
2022-12-18T15:54:51.135Z,-3.10
2022-12-18T15:59:56.094Z,-3.00
2022-12-18T16:05:00.426Z,-3.10
2022-12-18T16:10:03.405Z,-3.10
2022-12-18T16:15:07.977Z,-3.10
2022-12-18T16:20:17.012Z,-3.20
2022-12-18T16:25:21.952Z,-3.30
2022-12-18T16:30:28.554Z,-3.20
2022-12-18T16:35:38.021Z,-3.20
2022-12-18T16:41:02.761Z,-3.20
2022-12-18T16:46:05.828Z,-3.30
2022-12-18T16:51:10.138Z,-3.20
2022-12-18T16:56:13.044Z,-3.10
2022-12-18T17:01:16.022Z,-3.00
2022-12-18T17:06:20.429Z,-3.00
2022-12-18T17:11:23.382Z,-3.00
2022-12-18T17:16:28.614Z,-2.80
2022-12-18T17:21:33.086Z,-2.70
2022-12-18T17:26:36.141Z,-2.80
2022-12-18T17:31:39.189Z,-3.00
2022-12-18T17:36:43.881Z,-3.00
2022-12-18T17:41:47.329Z,-3.10
2022-12-18T17:46:50.388Z,-3.10
2022-12-18T17:51:54.803Z,-3.00
2022-12-18T17:56:57.753Z,-2.90
2022-12-18T18:02:00.805Z,-3.00
2022-12-18T18:07:05.467Z,-3.00
2022-12-18T18:12:27.482Z,-2.90
2022-12-18T18:17:30.710Z,-2.70
2022-12-18T18:22:35.249Z,-2.60
2022-12-18T18:27:38.883Z,-2.50
2022-12-18T18:32:42.145Z,-2.70
2022-12-18T18:37:50.399Z,-2.80
2022-12-18T18:42:54.684Z,-2.70
2022-12-18T18:47:58.862Z,-2.80
2022-12-18T18:53:03.183Z,-2.70
2022-12-18T18:58:06.101Z,-2.60
2022-12-18T19:03:10.272Z,-2.50
2022-12-18T19:08:14.654Z,-2.40
2022-12-18T19:13:24.751Z,-2.50
2022-12-18T19:18:27.648Z,-2.80
2022-12-18T19:23:32.646Z,-2.70
2022-12-18T19:28:36.515Z,-2.70
2022-12-18T19:33:43.547Z,-2.60
2022-12-18T19:38:48.881Z,-2.40
2022-12-18T19:43:53.073Z,-2.40
2022-12-18T19:48:56.022Z,-2.30
2022-12-18T19:54:02.678Z,-2.30
2022-12-18T19:59:05.962Z,-2.30
2022-12-18T20:04:09.379Z,-2.40
2022-12-18T20:09:13.718Z,-2.30
2022-12-18T20:14:21.147Z,-2.20
2022-12-18T20:19:27.689Z,-2.20
2022-12-18T20:24:32.175Z,-2.10
2022-12-18T20:29:35.344Z,-2.10
2022-12-18T20:34:38.474Z,-2.00
2022-12-18T20:39:42.826Z,-2.20
2022-12-18T20:44:46.675Z,-2.20
2022-12-18T20:49:49.587Z,-2.00
2022-12-18T20:54:53.932Z,-2.00
2022-12-18T20:59:56.852Z,-2.00
2022-12-18T21:04:59.757Z,-2.10
2022-12-18T21:10:06.338Z,-2.10
2022-12-18T21:15:11.407Z,-2.00
2022-12-18T21:20:18.233Z,-2.00
2022-12-18T21:25:23.258Z,-2.00
2022-12-18T21:30:26.160Z,-2.10
2022-12-18T21:35:29.288Z,-1.90
2022-12-18T21:40:36.386Z,-1.90
2022-12-18T21:45:40.258Z,-1.90
2022-12-18T21:50:43.190Z,-1.80
2022-12-18T21:55:47.457Z,-1.90
2022-12-18T22:00:51.224Z,-1.80
2022-12-18T22:06:09.213Z,-1.80
2022-12-18T22:11:14.357Z,-1.70
2022-12-18T22:16:19.015Z,-1.70
2022-12-18T22:21:29.944Z,-1.70
2022-12-18T22:26:40.177Z,-1.60
2022-12-18T22:31:43.498Z,-1.50
2022-12-18T22:36:48.498Z,-1.60
2022-12-18T22:41:53.465Z,-1.60
2022-12-18T22:47:06.364Z,-1.50
2022-12-18T22:52:10.753Z,-1.40
2022-12-18T22:57:14.981Z,-1.50
2022-12-18T23:02:19.931Z,-1.80
2022-12-18T23:07:23.097Z,-1.90
2022-12-18T23:12:27.397Z,-1.90
2022-12-18T23:17:30.495Z,-1.80
2022-12-18T23:22:33.366Z,-1.80
2022-12-18T23:27:37.626Z,-1.70
2022-12-18T23:32:40.590Z,-1.50
2022-12-18T23:37:58.796Z,-1.70
2022-12-18T23:43:03.309Z,-1.90
2022-12-18T23:48:06.221Z,-2.00
2022-12-18T23:53:10.151Z,-1.90
2022-12-18T23:58:19.659Z,-1.80
